This is the latest recevied weather packets stored in our database for station/object AD5L. If no packets are shown the sender has not sent any weather packets the latest 1 day(s).
| Time | Temp. | Humidity | Pressure | Rain* | Wind** | Luminosity | Snow |
|---|---|---|---|---|---|---|---|
| 1778090028 | 20° C | 84% | 1012.8 hPa | 0 mm | - | - | - |
| 1778089411 | 19.44° C | 87% | 1012.6 hPa | 0 mm | - | - | - |
| 1778085208 | 16.67° C | 91% | 1012.9 hPa | 0 mm | - | - | - |
| 1778082218 | 15.56° C | 94% | 1014.3 hPa | 0 mm | - | - | - |
| 1778081609 | 16.11° C | 96% | 1014.3 hPa | 0 mm | - | - | - |
| 1778080410 | 16.67° C | 95% | 1013.8 hPa | 0 mm | - | - | - |
| 1778079821 | 17.22° C | 94% | 1013.2 hPa | 0 mm | - | - | - |
| 1778076211 | 19.44° C | 94% | 1011.2 hPa | 0 mm | - | - | - |
| 1778075602 | 20° C | 93% | 1011.4 hPa | 0 mm | - | - | - |
| 1778073814 | 23.33° C | 97% | 1010.5 hPa | 0 mm | - | - | - |
| 1778072615 | 23.33° C | 98% | 1010 hPa | 0 mm | - | - | - |
| 1778072006 | 23.33° C | 98% | 1009.9 hPa | 0 mm | - | - | - |
| 1778070810 | 22.78° C | 98% | 1009.8 hPa | 0 mm | - | - | - |
| 1778069612 | 22.78° C | 98% | 1009.6 hPa | 0 mm | - | - | - |
| 1778068414 | 22.78° C | 97% | 1009.4 hPa | 0 mm | - | - | - |
| 1778065427 | 23.33° C | 96% | 1009.5 hPa | 0 mm | - | - | - |
| 1778064808 | 23.33° C | 96% | 1009.4 hPa | 0 mm | - | - | - |
| 1778063020 | 23.33° C | 96% | 1009.2 hPa | 0 mm | - | - | - |
| 1778062411 | 23.33° C | 96% | 1009.2 hPa | 0 mm | - | - | - |
| 1778061817 | 23.33° C | 95% | 1009.1 hPa | 0 mm | - | - | - |
| 1778060012 | 23.89° C | 93% | 1008.7 hPa | 0 mm | - | - | - |
| 1778058221 | 23.89° C | 92% | 1008.7 hPa | 0 mm | - | - | - |
| 1778057612 | 23.89° C | 92% | 1008.6 hPa | 0 mm | - | - | - |
| 1778057023 | 24.44° C | 92% | 1008.6 hPa | 0 mm | - | - | - |
| 1778056414 | 24.44° C | 92% | 1008.6 hPa | 0 mm | - | - | - |
* Rain latest hour (hover to see other rain measurements)
** Current wind speed in m/s (hover to see current wind gust speed)